Pilot Station, Alaska
Current Conditions -  °F | °C
As of 7:36 AM on Friday 21 Nov 2014 (Local Time) from PASM Reporting Station
Clear Clear  
Wind Chill: 14°   Ceiling: Unl
Heat Index: 27°   Visibility: 10mi
Dew Point: 16°   Wind: 17mph
Humidity: 64%   Direction: 60°ENE
Pressure: 28.94"   Gusts: 24mph
Location:  61.94°N, 162.88°W
Report Text: PASM 211636Z AUTO 06015G21KT 10SM CLR M03/M09 A2894 RMK AO1
Loading
Personal Weather Stations






























Interactive Weather Map New forecast layout! Learn more

10-Day Weather Forecast

Advertisements
Track Severe Weather on mobile